Time;durP1;ratioP1;P1;durP2;ratioP2;P2;SDS_P1;SDS_P2;PMS_P1;PMS_P2;Temp;Humidity;BMP_temperature;BMP_pressure;BME280_temperature;BME280_humidity;BME280_pressure;Samples;Min_cycle;Max_cycle;Signal;HPM_P1;HPM_P2
2021/09/11 00:04:49;;;;;;;;;;;;;;;;;;;;;
2021/09/11 00:12:40;;;;;;;;;;;;;;;;;;;;;
2021/09/11 00:17:03;;;;;;;18.00;11.40;;;;;;;15.68;56.63;100198.86;109812;1231;137254;-72
2021/09/11 00:20:35;;;;;;;;;;;;;;;;;;;;;
2021/09/11 00:24:31;;;;;;;;;;;;;;;;;;;;;
2021/09/11 00:29:01;;;;;;;13.80;10.70;;;;;;;15.47;57.14;100194.00;110113;1226;137578;-72
2021/09/11 00:32:35;;;;;;;;;;;;;;;;;;;;;
2021/09/11 00:36:57;;;;;;;17.70;11.00;;;;;;;15.39;57.64;100192.66;110014;1232;107558;-72
2021/09/11 00:45:14;;;;;;;17.20;10.70;;;;;;;15.31;57.79;100191.34;109668;1229;137733;-71
2021/09/11 00:49:20;;;;;;;16.10;11.00;;;;;;;15.29;57.80;100186.52;109614;1232;108556;-73
2021/09/11 00:56:45;;;;;;;;;;;;;;;;;;;;;
2021/09/11 01:00:55;;;;;;;14.70;11.40;;;;;;;15.22;58.10;100176.55;112195;1213;93867;-71
2021/09/11 01:04:43;;;;;;;16.30;10.10;;;;;;;15.18;58.24;100175.39;111570;1218;137107;-72
2021/09/11 01:08:53;;;;;;;15.70;10.50;;;;;;;15.16;58.38;100175.48;111890;1218;137980;-74
2021/09/11 01:12:45;;;;;;;13.10;9.50;;;;;;;15.16;58.33;100178.45;111433;1216;106319;-73
2021/09/11 01:16:44;;;;;;;;;;;;;;;;;;;;;
2021/09/11 01:21:03;;;;;;;;;;;;;;;;;;;;;
2021/09/11 01:33:11;;;;;;;;;;;;;;;;;;;;;
2021/09/11 01:37:18;;;;;;;;;;;;;;;;;;;;;
2021/09/11 01:41:48;;;;;;;14.90;10.20;;;;;;;15.12;58.40;100175.36;110171;1228;137417;-72
2021/09/11 01:49:33;;;;;;;;;;;;;;;;;;;;;
2021/09/11 01:54:05;;;;;;;15.90;10.30;;;;;;;15.02;58.73;100173.41;109930;1225;136449;-73
2021/09/11 01:58:11;;;;;;;19.60;10.70;;;;;;;14.97;58.91;100170.86;109533;1230;137929;-71
2021/09/11 02:06:05;;;;;;;14.50;10.40;;;;;;;14.91;59.26;100170.14;109493;1231;136973;-73
2021/09/11 02:14:06;;;;;;;19.30;10.70;;;;;;;14.87;59.46;100173.30;109507;1231;106916;-72
2021/09/11 02:18:12;;;;;;;12.90;10.00;;;;;;;14.85;59.37;100175.53;109409;1229;137367;-73
2021/09/11 02:30:29;;;;;;;16.40;10.10;;;;;;;14.74;60.08;100176.44;109670;1234;137342;-72
2021/09/11 02:34:20;;;;;;;;;;;;;;;;;;;;;
2021/09/11 02:38:31;;;;;;;14.10;10.40;;;;;;;14.65;60.20;100170.25;109911;1228;107544;-72
2021/09/11 02:54:11;;;;;;;16.20;11.80;;;;;;;14.34;61.05;100169.09;112169;1212;137204;-73
2021/09/11 02:58:22;;;;;;;17.00;12.60;;;;;;;14.23;61.55;100165.64;111909;1212;137365;-72
2021/09/11 03:06:20;;;;;;;19.40;12.50;;;;;;;13.98;62.27;100165.79;111188;1217;107515;-71
2021/09/11 03:10:54;;;;;;;17.20;12.40;;;;;;;13.90;62.64;100163.36;111047;1216;138122;-71
2021/09/11 03:39:44;;;;;;;18.90;12.40;;;;;;;13.53;64.28;100161.42;109730;1237;108944;-74
2021/09/11 03:43:49;;;;;;;15.20;11.90;;;;;;;13.46;64.52;100158.59;109620;1231;137399;-73
2021/09/11 03:51:46;;;;;;;16.90;12.80;;;;;;;13.40;64.77;100153.98;111627;1217;636955;-73
2021/09/11 03:55:30;;;;;;;17.80;12.50;;;;;;;13.35;65.22;100154.39;112179;1211;137229;-73
2021/09/11 03:59:19;;;;;;;21.70;12.90;;;;;;;13.28;65.30;100153.45;111848;1212;137242;-73
2021/09/11 04:23:46;;;;;;;17.30;12.80;;;;;;;13.35;65.93;100162.75;111426;1220;637992;-72
2021/09/11 04:27:34;;;;;;;19.70;13.50;;;;;;;13.46;65.63;100154.42;112280;1206;93898;-72
2021/09/11 04:35:51;;;;;;;26.60;13.20;;;;;;;14.47;63.96;100154.86;111746;1212;138264;-73
2021/09/11 04:39:52;;;;;;;;;;;;;;;;;;;;;
2021/09/11 04:48:50;;;;;;;21.60;13.50;;;;;;;17.83;58.36;100147.79;110988;1217;137197;-73
2021/09/11 04:52:24;;;;;;;;;;;;;;;;;;;;;
2021/09/11 04:56:39;;;;;;;;;;;;;;;;;;;;;
2021/09/11 05:00:17;;;;;;;18.00;12.30;;;;;;;20.98;50.10;100148.24;110472;1225;137647;-72
2021/09/11 05:04:29;;;;;;;17.10;11.70;;;;;;;21.70;49.06;100151.59;110694;1228;109862;-72
2021/09/11 05:08:17;;;;;;;15.30;11.60;;;;;;;22.76;46.79;100145.73;111188;1222;137383;-73
2021/09/11 05:11:36;;;;;;;;;;;;;;;;;;;;;
2021/09/11 05:14:44;;;;;;;18.40;12.00;;;;;;;24.53;43.35;100141.80;111258;1223;108613;-72
2021/09/11 05:18:36;;;;;;;;;;;;;;;;;;;;;
2021/09/11 05:21:47;;;;;;;15.40;10.50;;;;;;;25.98;40.53;100136.59;111202;1216;107953;-73
2021/09/11 05:24:55;;;;;;;13.10;9.90;;;;;;;26.64;39.68;100136.98;111803;1216;137173;-72
2021/09/11 05:28:23;;;;;;;15.90;11.00;;;;;;;27.36;37.99;100136.55;112099;1208;95330;-72
2021/09/11 05:31:11;;;;;;;13.10;9.90;;;;;;;28.02;36.63;100134.38;112026;1209;137052;-72
2021/09/11 05:34:20;;;;;;;11.30;9.80;;;;;;;28.53;35.92;100137.38;112297;1209;107147;-72
2021/09/11 05:37:27;;;;;;;11.40;9.40;;;;;;;28.92;34.68;100134.03;112170;1203;137201;-72
2021/09/11 05:40:34;;;;;;;13.40;9.80;;;;;;;29.32;34.32;100132.52;112335;1203;94988;-72
2021/09/11 05:43:21;;;;;;;13.90;9.70;;;;;;;29.96;33.48;100127.77;112203;1209;136856;-72
2021/09/11 05:46:20;;;;;;;10.80;8.70;;;;;;;30.76;32.55;100123.73;112239;1202;108373;-72
2021/09/11 05:49:48;;;;;;;11.70;9.30;;;;;;;31.28;30.95;100118.27;112390;1199;136995;-72
2021/09/11 05:52:46;;;;;;;13.40;9.90;;;;;;;31.69;29.89;100112.84;112736;1205;109322;-72
2021/09/11 05:56:25;;;;;;;12.30;9.50;;;;;;;31.95;29.55;100111.21;112472;1200;137005;-72
2021/09/11 05:59:17;;;;;;;13.50;9.20;;;;;;;32.63;28.75;100112.72;112736;1205;94809;-73
2021/09/11 06:02:13;;;;;;;11.50;8.80;;;;;;;33.32;28.42;100110.02;112604;1205;136614;-72
2021/09/11 06:05:10;;;;;;;14.30;8.70;;;;;;;33.84;27.62;100107.77;112643;1198;97585;-73
2021/09/11 06:07:57;;;;;;;;;;;;;;;34.21;26.72;100112.66;112596;1205;136952;-72
2021/09/11 06:10:45;;;;;;;10.20;8.40;;;;;;;34.79;26.54;100114.45;112730;1205;95004;-72
2021/09/11 06:13:36;;;;;;;15.40;9.20;;;;;;;35.29;25.65;100115.67;112595;1205;136864;-74
2021/09/11 06:16:37;;;;;;;10.40;8.30;;;;;;;35.80;25.02;100119.05;112761;1205;98507;-72
2021/09/11 06:19:25;;;;;;;12.40;8.20;;;;;;;36.23;24.34;100119.01;112611;1204;136848;-73
2021/09/11 06:22:13;;;;;;;12.20;8.10;;;;;;;36.83;23.95;100120.55;112763;1198;99841;-73
2021/09/11 06:25:04;;;;;;;9.90;7.20;;;;;;;37.50;23.03;100129.23;112634;1204;136923;-72
2021/09/11 06:27:54;;;;;;;14.40;8.90;;;;;;;37.58;22.40;100127.19;112759;1198;94838;-73
2021/09/11 06:30:42;;;;;;;11.90;8.00;;;;;;;37.97;22.20;100128.94;112699;1198;136911;-72
2021/09/11 06:33:29;;;;;;;10.40;7.70;;;;;;;38.55;21.48;100121.80;112592;1200;96238;-72
2021/09/11 06:36:16;;;;;;;13.60;8.00;;;;;;;38.99;20.98;100121.30;112641;1204;136998;-73
2021/09/11 06:39:06;;;;;;;11.40;7.80;;;;;;;38.80;20.08;100126.79;112802;1197;94884;-72
2021/09/11 06:41:54;;;;;;;9.60;6.90;;;;;;;38.58;20.68;100127.88;112729;1197;94825;-72
2021/09/11 06:44:41;;;;;;;10.00;7.80;;;;;;;39.16;20.47;100130.89;112719;1198;99815;-72
2021/09/11 06:47:29;;;;;;;10.80;7.70;;;;;;;39.22;19.64;100133.55;112754;1204;98793;-73
2021/09/11 06:50:16;;;;;;;8.50;7.30;;;;;;;38.93;19.49;100132.14;112636;1204;136892;-72
2021/09/11 06:53:07;;;;;;;12.00;7.40;;;;;;;38.98;19.89;100135.01;112773;1198;95595;-72
2021/09/11 06:55:54;;;;;;;10.20;7.00;;;;;;;39.05;19.63;100134.33;112660;1198;136916;-72
2021/09/11 06:58:42;;;;;;;9.20;7.30;;;;;;;38.99;19.15;100132.95;112669;1197;100778;-71
2021/09/11 07:01:30;;;;;;;14.20;7.20;;;;;;;39.16;19.01;100135.28;112684;1204;136799;-72
2021/09/11 07:04:18;;;;;;;11.80;7.00;;;;;;;39.46;19.13;100135.32;112742;1198;98900;-73
2021/09/11 07:07:08;;;;;;;11.00;7.20;;;;;;;40.07;18.69;100139.71;112603;1198;137044;-72
2021/09/11 07:09:55;;;;;;;13.00;7.80;;;;;;;40.18;18.00;100139.92;112706;1204;94928;-72
2021/09/11 07:12:49;;;;;;;12.70;8.20;;;;;;;40.19;17.94;100146.23;112611;1198;137175;-72
2021/09/11 07:15:37;;;;;;;9.30;7.00;;;;;;;40.03;17.64;100147.29;112731;1205;96231;-72
2021/09/11 07:18:33;;;;;;;11.40;7.10;;;;;;;39.86;17.87;100148.59;112613;1204;137041;-73
2021/09/11 07:21:22;;;;;;;9.80;7.00;;;;;;;39.83;18.13;100148.38;112749;1204;94806;-74
2021/09/11 07:24:10;;;;;;;10.70;7.60;;;;;;;40.00;18.09;100140.63;112733;1198;94813;-72
2021/09/11 07:26:59;;;;;;;11.60;7.70;;;;;;;40.20;18.17;100143.04;112617;1204;137451;-72
2021/09/11 07:29:45;;;;;;;12.00;8.30;;;;;;;40.29;18.18;100142.20;112759;1204;96093;-72
2021/09/11 07:32:34;;;;;;;11.10;8.00;;;;;;;40.42;18.15;100136.94;112615;1198;136958;-72
2021/09/11 07:35:21;;;;;;;12.50;7.10;;;;;;;40.53;17.93;100134.81;112658;1204;94878;-72
2021/09/11 07:38:09;;;;;;;12.10;7.30;;;;;;;40.40;17.15;100138.80;112653;1198;136972;-73
2021/09/11 07:40:56;;;;;;;13.70;7.70;;;;;;;40.02;17.30;100137.84;112705;1205;101282;-72
2021/09/11 07:43:43;;;;;;;10.90;7.50;;;;;;;39.73;17.51;100135.90;112644;1194;137645;-73
2021/09/11 07:46:30;;;;;;;8.90;6.90;;;;;;;39.40;17.60;100134.86;112710;1198;100400;-74
2021/09/11 07:49:18;;;;;;;10.00;7.30;;;;;;;39.03;18.14;100134.58;112608;1204;137184;-72
2021/09/11 07:52:07;;;;;;;13.00;8.50;;;;;;;38.94;18.26;100132.95;112766;1204;94785;-73
2021/09/11 07:54:54;;;;;;;12.90;7.30;;;;;;;39.14;18.39;100130.60;112637;1198;137092;-73
2021/09/11 07:57:42;;;;;;;10.70;7.20;;;;;;;39.12;18.20;100132.24;112739;1204;98660;-72
2021/09/11 08:00:37;;;;;;;12.20;6.90;;;;;;;38.83;18.29;100131.48;112717;1205;98948;-72
2021/09/11 08:03:28;;;;;;;15.00;8.00;;;;;;;38.92;18.79;100130.40;112726;1204;94854;-72
2021/09/11 08:06:17;;;;;;;10.20;7.50;;;;;;;39.12;18.83;100135.14;112787;1198;96387;-72
2021/09/11 08:09:06;;;;;;;9.90;6.40;;;;;;;39.17;18.55;100135.25;112640;1204;136997;-73
2021/09/11 08:11:54;;;;;;;12.20;7.20;;;;;;;39.07;18.52;100132.90;112699;1205;97461;-72
2021/09/11 08:14:44;;;;;;;11.00;7.30;;;;;;;39.15;18.39;100133.45;112635;1205;136984;-72
2021/09/11 08:17:31;;;;;;;9.50;7.30;;;;;;;38.98;17.99;100133.48;112678;1205;94906;-73
2021/09/11 08:20:19;;;;;;;10.00;6.50;;;;;;;38.63;18.68;100134.03;112637;1199;136830;-72
2021/09/11 08:23:06;;;;;;;9.80;7.00;;;;;;;38.55;19.02;100130.46;112800;1205;100961;-73
2021/09/11 08:25:54;;;;;;;11.40;7.00;;;;;;;38.54;19.24;100131.58;112644;1197;136879;-73
2021/09/11 08:28:42;;;;;;;11.40;6.90;;;;;;;38.64;19.18;100132.11;112734;1204;98850;-73
2021/09/11 08:31:29;;;;;;;12.60;6.50;;;;;;;38.70;18.53;100134.60;112619;1204;137133;-72
2021/09/11 08:34:19;;;;;;;13.40;6.60;;;;;;;38.27;18.62;100133.22;112729;1205;94820;-72
2021/09/11 08:37:06;;;;;;;6.40;5.80;;;;;;;37.85;18.32;100134.80;112648;1206;137110;-72
2021/09/11 08:40:02;;;;;;;8.80;5.20;;;;;;;37.35;18.90;100135.02;112705;1205;97645;-72
2021/09/11 08:42:50;;;;;;;15.10;6.00;;;;;;;36.86;19.43;100128.98;112691;1204;97588;-72
2021/09/11 08:45:42;;;;;;;13.60;6.10;;;;;;;36.54;19.91;100127.41;112692;1204;136906;-72
2021/09/11 08:48:30;;;;;;;6.70;5.10;;;;;;;36.44;20.31;100128.12;112729;1203;95052;-72
2021/09/11 08:51:24;;;;;;;9.30;5.10;;;;;;;36.26;20.18;100128.44;112623;1205;136841;-73
2021/09/11 08:54:18;;;;;;;8.70;5.40;;;;;;;35.80;20.10;100129.85;112707;1198;98657;-72
2021/09/11 08:57:23;;;;;;;10.10;5.30;;;;;;;35.32;20.60;100125.08;112610;1204;137058;-72
2021/09/11 09:00:36;;;;;;;7.70;5.50;;;;;;;34.99;20.88;100124.40;112731;1204;95393;-73
2021/09/11 09:04:37;;;;;;;;;;;;;;;;;;;;;
2021/09/11 09:07:56;;;;;;;9.40;5.20;;;;;;;34.61;21.25;100118.54;112306;1207;137271;-72
2021/09/11 09:10:46;;;;;;;8.90;5.00;;;;;;;34.27;21.36;100118.66;112419;1201;107143;-72
2021/09/11 09:13:52;;;;;;;9.80;5.20;;;;;;;33.89;21.63;100117.42;112335;1207;137157;-73
2021/09/11 09:17:11;;;;;;;6.60;4.50;;;;;;;33.49;21.70;100119.92;112447;1207;94961;-73
2021/09/11 09:20:32;;;;;;;9.60;5.00;;;;;;;33.49;22.41;100118.85;112294;1207;136975;-72
2021/09/11 09:23:24;;;;;;;6.40;4.30;;;;;;;33.70;22.48;100120.13;112276;1211;100818;-72
2021/09/11 09:26:14;;;;;;;10.70;5.00;;;;;;;33.87;21.88;100125.38;112184;1211;137086;-72
2021/09/11 09:29:10;;;;;;;8.10;4.70;;;;;;;33.73;21.52;100132.19;112237;1212;99034;-71
2021/09/11 09:31:59;;;;;;;8.30;4.20;;;;;;;33.48;21.43;100128.92;112118;1211;137205;-72
2021/09/11 09:34:53;;;;;;;9.30;4.70;;;;;;;33.12;21.52;100129.52;112238;1204;96194;-73
2021/09/11 09:37:53;;;;;;;12.30;4.30;;;;;;;32.93;22.33;100136.46;112184;1203;137142;-72
2021/09/11 09:40:46;;;;;;;7.90;4.40;;;;;;;32.71;21.34;100139.47;112215;1203;106626;-72
2021/09/11 09:43:45;;;;;;;7.90;4.50;;;;;;;32.24;21.66;100127.59;112196;1206;137564;-72
2021/09/11 09:46:46;;;;;;;12.30;4.40;;;;;;;31.96;22.30;100129.32;112339;1201;96318;-72
2021/09/11 09:50:05;;;;;;;8.20;4.30;;;;;;;31.75;22.54;100128.79;112286;1201;137792;-73
2021/09/11 09:52:53;;;;;;;8.80;3.90;;;;;;;31.46;23.01;100119.23;112497;1206;110893;-72
2021/09/11 09:55:42;;;;;;;7.70;4.00;;;;;;;31.66;23.30;100120.61;112354;1201;137469;-72
2021/09/11 09:58:48;;;;;;;;;;;;;;;31.76;23.36;100115.36;112594;1204;107551;-73
2021/09/11 10:02:07;;;;;;;;;;;;;;;;;;;;;
2021/09/11 10:05:24;;;;;;;11.90;4.20;;;;;;;31.62;23.53;100116.91;112795;1197;96207;-72
2021/09/11 10:08:20;;;;;;;7.80;3.80;;;;;;;31.40;23.42;100113.14;112712;1199;137111;-72
2021/09/11 10:11:12;;;;;;;10.60;3.70;;;;;;;31.12;23.66;100115.26;112727;1198;106222;-71
2021/09/11 10:14:34;;;;;;;7.70;4.00;;;;;;;30.95;23.76;100117.23;112682;1199;137448;-73
2021/09/11 10:17:33;;;;;;;6.40;4.00;;;;;;;30.95;23.71;100117.90;112782;1197;97413;-73
2021/09/11 10:20:22;;;;;;;7.60;4.20;;;;;;;30.86;23.84;100114.52;112705;1196;137155;-72
2021/09/11 10:26:47;;;;;;;6.80;3.50;;;;;;;31.01;24.34;100110.52;112705;1204;137396;-72
2021/09/11 10:29:49;;;;;;;3.80;3.30;;;;;;;31.05;24.10;100111.83;112829;1204;108956;-72
2021/09/11 10:33:10;;;;;;;5.90;3.40;;;;;;;30.93;24.04;100106.88;112675;1203;137221;-72
2021/09/11 10:36:10;;;;;;;4.90;3.50;;;;;;;30.79;24.45;100108.33;112803;1198;96144;-73
2021/09/11 10:39:21;;;;;;;7.80;3.90;;;;;;;30.85;24.65;100102.10;112694;1205;137111;-71
2021/09/11 10:43:09;;;;;;;;;;;;;;;;;;;;;
2021/09/11 10:46:07;;;;;;;6.00;3.90;;;;;;;30.54;25.03;100105.00;112257;1210;137112;-72
2021/09/11 10:49:29;;;;;;;7.20;3.80;;;;;;;30.29;25.35;100094.17;112360;1208;96348;-73
2021/09/11 10:52:16;;;;;;;7.90;4.20;;;;;;;30.22;25.63;100095.01;112402;1208;96831;-73
2021/09/11 10:55:37;;;;;;;6.40;4.20;;;;;;;30.28;25.92;100091.25;112349;1209;111324;-72
2021/09/11 10:58:48;;;;;;;7.40;3.50;;;;;;;30.27;25.64;100090.48;112250;1210;137593;-74
2021/09/11 11:02:03;;;;;;;6.60;3.90;;;;;;;30.18;25.82;100085.83;112420;1207;107475;-72
2021/09/11 11:05:20;;;;;;;5.60;4.20;;;;;;;30.13;25.97;100086.15;112556;1207;96351;-72
2021/09/11 11:08:23;;;;;;;8.20;3.90;;;;;;;30.16;26.07;100082.73;112557;1203;96178;-74
2021/09/11 11:11:45;;;;;;;6.50;3.70;;;;;;;30.31;25.72;100085.80;112651;1203;110804;-73
2021/09/11 11:14:45;;;;;;;12.30;4.40;;;;;;;30.17;25.75;100081.42;112560;1206;106238;-72
2021/09/11 11:18:05;;;;;;;7.80;3.90;;;;;;;29.89;25.94;100080.51;112402;1208;108740;-72
2021/09/11 11:21:20;;;;;;;6.10;3.70;;;;;;;29.73;26.39;100084.20;112347;1206;96231;-72
2021/09/11 11:24:32;;;;;;;5.30;3.50;;;;;;;29.60;26.62;100079.06;112716;1206;96302;-72
2021/09/11 11:27:23;;;;;;;7.10;3.80;;;;;;;29.62;26.57;100074.36;112631;1207;110739;-72
2021/09/11 11:30:40;;;;;;;9.30;4.30;;;;;;;29.53;27.02;100071.32;112586;1206;136965;-72
2021/09/11 11:34:07;;;;;;;7.30;4.20;;;;;;;29.42;27.05;100072.13;112539;1207;107490;-73
2021/09/11 11:37:02;;;;;;;5.00;3.60;;;;;;;29.20;27.26;100065.65;112825;1204;96231;-72
2021/09/11 11:40:33;;;;;;;6.40;3.90;;;;;;;29.27;27.75;100060.77;112770;1200;96182;-72
2021/09/11 11:43:46;;;;;;;5.10;4.00;;;;;;;29.09;27.65;100063.48;112666;1203;110039;-72
2021/09/11 11:46:40;;;;;;;4.90;3.40;;;;;;;28.99;27.92;100063.40;112471;1207;107363;-72
2021/09/11 11:49:59;;;;;;;7.40;4.20;;;;;;;28.98;28.28;100069.08;112535;1206;136940;-72
2021/09/11 11:53:12;;;;;;;13.40;4.70;;;;;;;28.98;28.37;100062.88;112551;1199;96294;-72
2021/09/11 11:56:13;;;;;;;10.00;4.20;;;;;;;28.94;28.66;100064.98;112510;1199;96285;-72
2021/09/11 11:59:35;;;;;;;;;;;;;;;;;;;;;
2021/09/11 12:03:01;;;;;;;;;;;;;;;;;;;;;
2021/09/11 12:06:16;;;;;;;6.60;4.30;;;;;;;28.93;28.70;100060.19;112435;1208;137574;-74
2021/09/11 12:09:13;;;;;;;8.90;4.40;;;;;;;28.82;29.04;100061.52;112590;1199;96277;-72
2021/09/11 12:12:12;;;;;;;7.80;3.90;;;;;;;28.64;29.43;100064.80;112634;1207;96314;-73
2021/09/11 12:15:08;;;;;;;6.20;4.00;;;;;;;28.63;29.70;100058.52;112631;1204;108466;-72
2021/09/11 12:18:11;;;;;;;7.20;4.70;;;;;;;28.75;29.92;100051.56;112650;1203;107144;-73
2021/09/11 12:21:12;;;;;;;5.90;4.10;;;;;;;28.76;29.79;100051.27;112564;1205;136921;-73
2021/09/11 12:24:28;;;;;;;7.10;4.20;;;;;;;28.59;29.91;100047.70;112792;1199;96183;-73
2021/09/11 12:27:39;;;;;;;8.20;4.70;;;;;;;28.49;30.15;100044.98;112741;1200;137022;-73
2021/09/11 12:30:51;;;;;;;5.30;3.70;;;;;;;28.57;30.70;100044.98;112819;1204;109882;-73
2021/09/11 12:34:16;;;;;;;4.90;3.50;;;;;;;28.83;30.46;100045.14;112714;1205;137270;-73
2021/09/11 12:37:22;;;;;;;4.80;3.40;;;;;;;29.08;30.34;100041.63;112774;1205;107235;-73
2021/09/11 12:40:54;;;;;;;8.80;4.20;;;;;;;29.45;30.19;100032.61;112771;1205;96219;-72
2021/09/11 12:44:12;;;;;;;;;;;;;;;;;;;;;
2021/09/11 12:47:14;;;;;;;5.20;4.20;;;;;;;29.74;29.90;100028.52;112783;1204;109802;-72
2021/09/11 12:50:32;;;;;;;8.30;4.30;;;;;;;29.72;29.70;100031.72;112819;1200;107324;-73
2021/09/11 12:53:44;;;;;;;8.10;4.40;;;;;;;29.46;29.97;100027.27;112855;1205;108443;-73
2021/09/11 12:57:14;;;;;;;7.80;4.40;;;;;;;29.22;30.20;100028.74;112830;1196;96568;-73
2021/09/11 13:01:07;;;;;;;;;;;;;;;;;;;;;
2021/09/11 13:04:04;;;;;;;8.50;5.00;;;;;;;29.15;30.68;100017.70;112414;1202;137375;-72
2021/09/11 13:07:32;;;;;;;7.20;4.50;;;;;;;28.93;31.00;100017.71;112515;1203;107352;-73
2021/09/11 13:11:00;;;;;;;;;;;;;;;;;;;;;
2021/09/11 13:13:55;;;;;;;6.70;4.60;;;;;;;28.65;31.58;100019.52;112428;1203;96445;-72
2021/09/11 13:17:07;;;;;;;5.70;4.70;;;;;;;28.67;31.97;100018.46;112406;1203;137040;-72
2021/09/11 13:20:39;;;;;;;7.70;4.50;;;;;;;28.74;32.12;100022.59;112576;1198;110884;-72
2021/09/11 13:23:29;;;;;;;8.90;5.30;;;;;;;28.78;32.22;100016.90;112379;1202;137366;-73
2021/09/11 13:26:51;;;;;;;8.50;4.70;;;;;;;28.83;32.25;100014.14;112491;1203;107464;-73
2021/09/11 13:29:39;;;;;;;7.70;4.20;;;;;;;28.79;32.05;100015.42;112251;1202;137021;-72
2021/09/11 13:32:47;;;;;;;;;;;;;;;;;;;;;
2021/09/11 13:35:49;;;;;;;5.40;4.30;;;;;;;28.53;32.25;100012.19;112342;1199;136920;-72
2021/09/11 13:38:39;;;;;;;5.90;4.90;;;;;;;28.43;32.38;100007.92;112501;1203;106266;-73
2021/09/11 13:41:48;;;;;;;9.50;5.10;;;;;;;28.34;32.73;100004.70;112468;1205;137259;-72
2021/09/11 13:44:39;;;;;;;6.30;5.10;;;;;;;28.24;32.87;100002.65;112750;1198;96148;-73
2021/09/11 13:48:04;;;;;;;11.40;4.70;;;;;;;28.35;33.08;99998.33;112769;1204;136749;-73
2021/09/11 13:51:05;;;;;;;6.20;4.90;;;;;;;28.27;33.05;99996.77;112884;1205;111057;-72
2021/09/11 13:54:11;;;;;;;6.30;5.30;;;;;;;28.16;33.26;99998.22;112672;1205;136848;-73
2021/09/11 13:57:05;;;;;;;7.00;4.80;;;;;;;28.15;33.68;99998.55;112717;1196;108507;-72
2021/09/11 14:00:06;;;;;;;7.30;5.10;;;;;;;28.17;33.81;99994.13;112768;1205;136727;-73
2021/09/11 14:03:12;;;;;;;8.90;4.90;;;;;;;28.18;33.63;99991.72;112893;1204;96156;-72
2021/09/11 14:06:33;;;;;;;8.10;5.30;;;;;;;28.09;33.60;99994.17;112732;1205;136603;-73
2021/09/11 14:09:32;;;;;;;8.80;5.20;;;;;;;27.93;33.95;99988.78;112892;1200;106266;-73
2021/09/11 14:13:00;;;;;;;8.40;6.00;;;;;;;27.86;34.24;99989.93;112819;1196;108386;-74
2021/09/11 14:15:51;;;;;;;7.10;4.80;;;;;;;27.85;34.43;99988.42;112814;1204;96332;-72
2021/09/11 14:19:14;;;;;;;7.20;4.70;;;;;;;27.81;34.29;99989.89;112839;1204;96610;-73
2021/09/11 14:22:34;;;;;;;5.70;4.80;;;;;;;27.75;34.25;99990.95;112848;1205;108433;-73
2021/09/11 14:25:52;;;;;;;6.50;5.00;;;;;;;27.61;34.04;99987.42;112925;1204;106252;-73
2021/09/11 14:29:24;;;;;;;;;;;;;;;;;;;;;
2021/09/11 14:32:21;;;;;;;;;;;;;;;;;;;;;
2021/09/11 14:35:41;;;;;;;;;;;;;;;;;;;;;
2021/09/11 14:39:02;;;;;;;8.80;5.10;;;;;;;27.31;35.32;99987.20;112898;1204;111015;-72
2021/09/11 14:42:54;;;;;;;10.30;5.40;;;;;;;27.26;35.42;99990.66;112736;1195;137090;-73
2021/09/11 14:46:16;;;;;;;8.00;5.20;;;;;;;27.19;35.67;99988.38;112823;1204;107914;-73
2021/09/11 14:49:12;;;;;;;13.70;5.50;;;;;;;27.19;35.88;99988.74;112751;1204;137041;-72
2021/09/11 14:52:00;;;;;;;6.70;5.40;;;;;;;27.15;35.75;99985.63;112896;1203;96243;-72
2021/09/11 14:55:28;;;;;;;7.50;5.20;;;;;;;27.04;35.93;99983.70;112773;1204;137005;-73
2021/09/11 14:58:52;;;;;;;9.20;5.40;;;;;;;27.03;36.12;99984.30;112836;1205;105126;-73
2021/09/11 15:02:11;;;;;;;9.60;5.30;;;;;;;27.02;36.57;99986.60;112732;1200;137965;-74
2021/09/11 15:05:58;;;;;;;;;;;;;;;;;;;;;
2021/09/11 15:09:06;;;;;;;8.10;6.00;;;;;;;26.81;36.98;99989.83;112778;1205;136691;-73
2021/09/11 15:12:27;;;;;;;;;;;;;;;;;;;;;
2021/09/11 15:15:45;;;;;;;9.10;5.60;;;;;;;26.44;37.45;99988.65;112890;1205;107150;-71
2021/09/11 15:19:16;;;;;;;7.00;5.70;;;;;;;26.29;38.02;99984.34;112876;1203;108497;-73
2021/09/11 15:22:38;;;;;;;8.20;5.80;;;;;;;26.18;38.09;99987.59;112765;1206;96641;-72
2021/09/11 15:25:50;;;;;;;10.10;5.70;;;;;;;26.06;38.43;99984.17;112784;1205;136979;-72
2021/09/11 15:29:25;;;;;;;9.10;5.80;;;;;;;26.00;38.52;99984.10;112931;1203;110994;-72
2021/09/11 15:33:14;;;;;;;8.00;5.30;;;;;;;25.93;38.75;99983.48;112725;1205;136927;-72
2021/09/11 15:36:56;;;;;;;10.30;5.80;;;;;;;25.85;39.02;99984.48;112863;1204;108732;-73
2021/09/11 15:40:34;;;;;;;;;;;;;;;;;;;;;
2021/09/11 15:44:27;;;;;;;10.70;6.10;;;;;;;25.73;39.32;99979.95;112285;1203;137095;-73
2021/09/11 15:47:41;;;;;;;9.90;5.80;;;;;;;25.67;39.67;99982.16;112178;1205;109922;-72
2021/09/11 15:51:20;;;;;;;8.40;6.60;;;;;;;25.63;40.03;99979.67;112113;1208;137257;-73
2021/09/11 15:54:31;;;;;;;11.80;5.70;;;;;;;25.56;40.17;99978.48;112237;1212;111168;-73
2021/09/11 15:58:12;;;;;;;;;;;;;;;;;;;;;
2021/09/11 16:01:28;;;;;;;9.10;6.10;;;;;;;25.41;40.89;99970.57;112183;1205;96626;-72
2021/09/11 16:04:40;;;;;;;10.80;5.90;;;;;;;25.30;41.10;99969.27;112315;1212;109717;-72
2021/09/11 16:08:22;;;;;;;;;;;;;;;;;;;;;
2021/09/11 16:11:43;;;;;;;8.10;5.90;;;;;;;25.15;41.52;99972.52;112098;1212;107521;-73
2021/09/11 16:15:22;;;;;;;;;;;;;;;;;;;;;
2021/09/11 16:19:10;;;;;;;8.30;6.60;;;;;;;25.00;42.08;99965.05;111998;1213;96239;-72
2021/09/11 16:22:49;;;;;;;11.40;6.70;;;;;;;24.93;42.36;99961.68;111808;1216;136861;-73
2021/09/11 16:26:09;;;;;;;10.00;6.80;;;;;;;24.83;42.79;99960.70;112066;1211;106264;-72
2021/09/11 16:29:48;;;;;;;;;;;;;;;;;;;;;
2021/09/11 16:33:52;;;;;;;10.50;6.50;;;;;;;24.63;43.21;99962.73;111788;1211;137855;-73
2021/09/11 16:36:53;;;;;;;9.00;6.60;;;;;;;24.53;43.46;99963.23;111885;1216;96334;-73
2021/09/11 16:40:27;;;;;;;9.90;6.30;;;;;;;24.47;43.68;99968.45;111734;1211;137137;-72
2021/09/11 16:43:54;;;;;;;9.70;6.70;;;;;;;24.40;44.12;99968.70;111813;1218;107328;-73
2021/09/11 16:47:26;;;;;;;8.50;6.60;;;;;;;24.31;44.27;99972.58;111770;1212;137063;-73
2021/09/11 16:50:38;;;;;;;;;;;;;;;;;;;;;
2021/09/11 16:54:27;;;;;;;10.50;6.70;;;;;;;24.12;44.82;99978.59;112182;1205;96736;-73
2021/09/11 16:57:56;;;;;;;11.50;6.80;;;;;;;24.00;45.20;99982.69;112091;1214;137249;-72
2021/09/11 17:01:36;;;;;;;10.60;7.20;;;;;;;23.91;45.45;99983.94;112266;1209;106345;-72
2021/09/11 17:05:27;;;;;;;10.80;7.50;;;;;;;23.81;45.73;99986.63;112257;1206;137192;-73
2021/09/11 17:08:59;;;;;;;9.90;7.20;;;;;;;23.71;45.87;99987.30;112241;1209;96441;-72
2021/09/11 17:12:29;;;;;;;9.30;7.20;;;;;;;23.62;46.28;99990.13;112869;1196;96170;-73
2021/09/11 17:15:48;;;;;;;;;;;;;;;;;;;;;
2021/09/11 17:19:18;;;;;;;;;;;;;;;;;;;;;
2021/09/11 17:23:08;;;;;;;13.80;8.20;;;;;;;23.35;47.14;99979.36;112414;1207;137290;-73
2021/09/11 17:27:03;;;;;;;10.20;7.50;;;;;;;23.27;47.47;99982.98;112235;1205;96395;-73
2021/09/11 17:31:37;;;;;;;11.40;8.00;;;;;;;23.17;47.73;99990.60;111906;1216;137071;-73
2021/09/11 17:34:59;;;;;;;12.90;7.70;;;;;;;23.09;48.09;99987.38;111878;1217;137509;-73
2021/09/11 17:38:10;;;;;;;13.70;8.10;;;;;;;23.03;48.33;99984.77;112018;1217;107214;-72
2021/09/11 17:41:46;;;;;;;15.50;8.70;;;;;;;22.95;48.50;99984.38;111908;1208;137206;-72
2021/09/11 17:45:00;;;;;;;12.70;8.90;;;;;;;22.88;48.61;99982.66;112019;1217;96489;-73
2021/09/11 17:48:59;;;;;;;;;;;;;;;;;;;;;
2021/09/11 17:52:28;;;;;;;15.70;9.30;;;;;;;22.74;48.93;99988.67;112011;1209;110822;-73
2021/09/11 17:55:56;;;;;;;14.50;9.20;;;;;;;22.68;49.16;99988.98;111994;1208;106225;-72
2021/09/11 17:59:26;;;;;;;10.70;8.90;;;;;;;22.63;49.43;99993.71;111876;1214;137446;-73
2021/09/11 18:02:43;;;;;;;18.90;9.80;;;;;;;22.57;49.61;99995.75;112156;1206;96264;-72
2021/09/11 18:06:11;;;;;;;13.60;9.60;;;;;;;22.52;49.89;99999.59;112176;1203;137204;-72
2021/09/11 18:09:40;;;;;;;;;;;;;;;;;;;;;
2021/09/11 18:13:37;;;;;;;13.70;9.20;;;;;;;22.39;50.22;99994.00;112775;1203;137137;-72